createdAt,value
2019-02-26T00:00:44.875Z,3.47
2019-02-26T00:04:00.779Z,5.30
2019-02-26T00:11:40.305Z,2.70
2019-02-26T00:15:06.490Z,3.80
2019-02-26T00:18:26.583Z,6.30
2019-02-26T00:21:50.127Z,3.95
2019-02-26T00:28:08.683Z,2.80
2019-02-26T00:31:10.058Z,3.67
2019-02-26T00:34:32.386Z,3.30
2019-02-26T00:37:56.542Z,4.30
2019-02-26T00:41:09.423Z,6.75
2019-02-26T00:44:25.223Z,4.85
2019-02-26T00:47:55.665Z,7.47
2019-02-26T00:51:26.913Z,3.90
2019-02-26T00:54:37.137Z,12.07
2019-02-26T01:00:19.497Z,4.85
2019-02-26T01:02:54.480Z,3.42
2019-02-26T01:05:48.249Z,3.70
2019-02-26T01:08:47.097Z,4.25
2019-02-26T01:11:42.943Z,3.00
2019-02-26T01:14:26.233Z,5.95
2019-02-26T01:17:03.786Z,2.92
2019-02-26T01:19:40.729Z,4.08
2019-02-26T01:22:58.973Z,3.85
2019-02-26T01:25:38.268Z,4.50
2019-02-26T01:28:39.598Z,3.98
2019-02-26T01:31:33.984Z,3.52
2019-02-26T01:34:20.350Z,5.22
2019-02-26T01:36:52.856Z,3.27
2019-02-26T01:39:35.638Z,3.98
2019-02-26T01:42:13.382Z,2.80
2019-02-26T01:44:50.219Z,5.30
2019-02-26T01:47:42.752Z,3.55
2019-02-26T01:50:23.552Z,4.60
2019-02-26T01:53:14.501Z,2.85
2019-02-26T01:55:56.829Z,4.35
2019-02-26T01:58:33.436Z,4.90
2019-02-26T02:01:12.019Z,4.12
2019-02-26T02:03:53.250Z,5.00
2019-02-26T02:06:41.225Z,2.70
2019-02-26T02:09:18.700Z,4.55
2019-02-26T02:12:02.185Z,4.60
2019-02-26T02:14:39.367Z,5.03
2019-02-26T02:17:25.312Z,3.72
2019-02-26T02:20:15.686Z,3.45
2019-02-26T02:23:13.504Z,5.22
2019-02-26T02:25:48.618Z,4.00
2019-02-26T02:28:46.369Z,4.53
2019-02-26T02:31:31.131Z,3.55
2019-02-26T02:34:15.637Z,3.17
2019-02-26T02:37:14.857Z,2.05
2019-02-26T02:39:55.089Z,5.40
2019-02-26T02:42:40.766Z,3.50
2019-02-26T02:45:36.975Z,3.10
2019-02-26T02:48:44.084Z,3.37
2019-02-26T02:51:25.738Z,3.85
2019-02-26T03:00:41.802Z,3.27
2019-02-26T03:03:40.186Z,3.83
2019-02-26T03:06:38.566Z,4.03
2019-02-26T03:09:20.285Z,3.02
2019-02-26T03:11:58.140Z,3.50
2019-02-26T03:14:44.500Z,3.42
2019-02-26T03:17:22.175Z,3.77
2019-02-26T03:19:58.450Z,3.30
2019-02-26T03:22:34.160Z,3.62
2019-02-26T03:25:24.363Z,4.12
2019-02-26T03:28:00.743Z,5.92
2019-02-26T03:30:40.175Z,4.12
2019-02-26T03:33:22.373Z,4.80
2019-02-26T03:36:05.502Z,4.20
2019-02-26T03:38:37.087Z,6.90
2019-02-26T03:41:10.434Z,4.12
2019-02-26T03:43:57.301Z,5.58
2019-02-26T03:46:30.233Z,5.05
2019-02-26T03:49:05.647Z,3.95
2019-02-26T03:51:39.740Z,3.65
2019-02-26T03:54:10.241Z,4.08
2019-02-26T03:56:42.824Z,4.40
2019-02-26T03:59:16.828Z,3.42
2019-02-26T04:01:49.895Z,3.27
2019-02-26T04:04:22.938Z,3.95
2019-02-26T04:06:55.758Z,3.60
2019-02-26T04:09:33.483Z,3.70
2019-02-26T04:12:07.616Z,4.70
2019-02-26T04:14:44.141Z,3.52
2019-02-26T04:17:28.637Z,3.22
2019-02-26T04:19:59.727Z,5.12
2019-02-26T04:22:42.259Z,3.35
2019-02-26T04:25:17.143Z,4.12
2019-02-26T04:28:31.214Z,3.52
2019-02-26T04:31:32.815Z,5.03
2019-02-26T04:35:00.486Z,3.35
2019-02-26T04:38:12.604Z,3.80
2019-02-26T04:41:11.988Z,10.13
2019-02-26T04:44:26.267Z,3.87
2019-02-26T04:47:09.614Z,4.72
2019-02-26T04:50:05.501Z,2.90
2019-02-26T04:52:35.743Z,5.80
2019-02-26T04:55:08.673Z,4.00
2019-02-26T04:57:42.615Z,6.50
2019-02-26T05:00:23.511Z,6.70
2019-02-26T05:02:56.167Z,4.20
2019-02-26T05:05:28.510Z,5.42
2019-02-26T05:07:59.053Z,6.40
2019-02-26T05:10:34.330Z,4.72
2019-02-26T05:13:09.554Z,6.42
2019-02-26T05:15:43.390Z,5.65
2019-02-26T05:18:13.302Z,5.28
2019-02-26T05:20:48.106Z,3.95
2019-02-26T05:23:20.680Z,6.25
2019-02-26T05:26:15.255Z,3.85
2019-02-26T05:28:46.925Z,3.87
2019-02-26T05:31:18.055Z,7.75
2019-02-26T05:33:50.134Z,4.47
2019-02-26T05:36:25.426Z,4.35
2019-02-26T05:38:59.505Z,5.22
2019-02-26T05:41:30.460Z,4.22
2019-02-26T05:44:23.368Z,3.85
2019-02-26T05:50:06.237Z,8.20
2019-02-26T05:52:35.880Z,9.45
2019-02-26T05:55:07.211Z,6.50
2019-02-26T05:57:39.703Z,9.58
2019-02-26T06:00:13.476Z,4.60
2019-02-26T06:02:44.754Z,6.72
2019-02-26T06:05:14.443Z,5.03
2019-02-26T06:07:45.689Z,6.97
2019-02-26T06:10:18.896Z,5.92
2019-02-26T06:12:48.968Z,9.25
2019-02-26T06:15:20.380Z,9.23
2019-02-26T06:17:55.928Z,6.17
2019-02-26T06:20:28.718Z,10.03
2019-02-26T06:22:58.318Z,7.67
2019-02-26T06:25:28.454Z,8.20
2019-02-26T06:28:02.309Z,10.23
2019-02-26T06:30:31.975Z,10.82
2019-02-26T06:33:04.373Z,6.72
2019-02-26T06:35:35.984Z,6.95
2019-02-26T06:38:11.510Z,8.58
2019-02-26T06:40:44.587Z,7.75
2019-02-26T06:43:15.849Z,7.72
2019-02-26T06:45:47.734Z,6.10
2019-02-26T06:48:20.894Z,7.97
2019-02-26T06:50:51.458Z,6.60
2019-02-26T06:53:21.700Z,5.95
2019-02-26T06:55:55.555Z,10.30
2019-02-26T06:58:30.693Z,6.35
2019-02-26T07:01:01.457Z,6.10
2019-02-26T07:03:33.102Z,5.62
2019-02-26T07:06:04.941Z,12.25
2019-02-26T07:08:35.211Z,6.87
2019-02-26T07:11:07.317Z,7.15
2019-02-26T07:13:39.177Z,7.47
2019-02-26T07:16:09.648Z,8.73
2019-02-26T07:18:39.836Z,7.80
2019-02-26T07:21:18.896Z,6.75
2019-02-26T07:23:51.629Z,7.17
2019-02-26T07:26:23.111Z,8.10
2019-02-26T07:28:55.835Z,7.03
2019-02-26T07:31:26.586Z,13.28
2019-02-26T07:34:00.120Z,10.70
2019-02-26T07:36:29.815Z,10.95
2019-02-26T07:38:59.998Z,7.47
2019-02-26T07:41:33.811Z,10.15
2019-02-26T07:44:09.040Z,9.15
2019-02-26T07:46:40.136Z,10.58
2019-02-26T07:49:09.966Z,8.70
2019-02-26T07:51:41.095Z,10.50
2019-02-26T07:54:13.843Z,16.10
2019-02-26T07:56:44.933Z,13.08
2019-02-26T07:59:15.202Z,16.50
2019-02-26T08:01:47.199Z,12.40
2019-02-26T08:04:18.419Z,12.82
2019-02-26T08:06:48.726Z,14.07
2019-02-26T08:09:21.245Z,11.08
2019-02-26T08:11:53.425Z,8.68
2019-02-26T08:14:25.644Z,12.28
2019-02-26T08:16:58.695Z,10.95
2019-02-26T08:19:29.713Z,9.65
2019-02-26T08:22:02.074Z,14.33
2019-02-26T08:24:32.271Z,11.65
2019-02-26T08:27:06.023Z,13.18
2019-02-26T08:29:38.428Z,12.07
2019-02-26T08:32:13.772Z,9.60
2019-02-26T08:34:44.296Z,11.38
2019-02-26T08:37:14.906Z,13.28
2019-02-26T08:39:45.566Z,12.85
2019-02-26T08:42:15.706Z,12.80
2019-02-26T08:44:46.840Z,13.80
2019-02-26T08:47:23.511Z,12.68
2019-02-26T08:49:53.713Z,15.48
2019-02-26T08:52:27.429Z,10.90
2019-02-26T08:54:59.778Z,11.20
2019-02-26T08:57:30.450Z,14.50
2019-02-26T09:00:01.665Z,12.93
2019-02-26T09:02:31.898Z,11.93
2019-02-26T09:05:04.452Z,10.65
2019-02-26T09:07:34.501Z,11.25
2019-02-26T09:10:07.147Z,11.53
2019-02-26T09:12:41.341Z,9.95
2019-02-26T09:15:13.171Z,13.18
2019-02-26T09:17:43.853Z,9.93
2019-02-26T09:20:15.535Z,11.33
2019-02-26T09:27:04.349Z,10.88
2019-02-26T09:29:36.760Z,10.08
2019-02-26T09:32:09.292Z,10.80
2019-02-26T09:34:39.942Z,12.82
2019-02-26T09:37:10.807Z,9.80
2019-02-26T09:39:47.875Z,13.28
2019-02-26T09:42:21.002Z,8.00
2019-02-26T09:44:52.971Z,11.43
2019-02-26T09:47:31.554Z,9.83
2019-02-26T09:50:04.421Z,9.23
2019-02-26T09:52:34.788Z,11.53
2019-02-26T09:55:05.640Z,8.33
2019-02-26T09:57:37.084Z,7.20
2019-02-26T10:00:10.851Z,10.72
2019-02-26T10:02:42.506Z,6.50
2019-02-26T10:05:16.409Z,6.00
2019-02-26T10:07:47.480Z,5.45
2019-02-26T10:10:18.244Z,6.75
2019-02-26T10:12:48.395Z,7.40
2019-02-26T10:15:19.774Z,8.30
2019-02-26T10:17:52.014Z,6.35
2019-02-26T10:20:25.402Z,4.10
2019-02-26T10:23:00.440Z,6.62
2019-02-26T10:25:31.941Z,5.92
2019-02-26T10:28:05.702Z,5.80
2019-02-26T10:30:40.975Z,6.58
2019-02-26T10:33:09.141Z,5.55
2019-02-26T10:35:42.003Z,4.97
2019-02-26T10:38:13.136Z,4.95
2019-02-26T10:40:53.435Z,6.70
2019-02-26T10:43:17.997Z,5.33
2019-02-26T10:45:50.544Z,3.83
2019-02-26T10:48:22.783Z,6.00
2019-02-26T10:50:54.768Z,5.45
2019-02-26T10:53:28.274Z,5.65
2019-02-26T10:56:01.059Z,6.10
2019-02-26T10:58:31.666Z,5.05
2019-02-26T11:01:05.115Z,5.58
2019-02-26T11:03:37.966Z,4.10
2019-02-26T11:06:08.159Z,3.05
2019-02-26T11:08:41.211Z,2.33
2019-02-26T11:11:18.193Z,2.55
2019-02-26T11:13:51.197Z,1.72
2019-02-26T11:16:43.428Z,4.67
2019-02-26T11:19:13.886Z,3.12
2019-02-26T11:21:47.341Z,3.33
2019-02-26T11:24:17.349Z,3.30
2019-02-26T11:26:47.574Z,3.45
2019-02-26T11:29:18.141Z,4.75
2019-02-26T11:31:49.720Z,1.77
2019-02-26T11:34:20.092Z,3.40
2019-02-26T11:36:50.271Z,6.53
2019-02-26T11:39:21.481Z,2.58
2019-02-26T11:41:53.619Z,2.85
2019-02-26T11:44:25.779Z,2.58
2019-02-26T11:46:56.499Z,2.45
2019-02-26T11:49:31.132Z,3.95
2019-02-26T11:52:07.176Z,2.58
2019-02-26T11:54:39.690Z,3.37
2019-02-26T11:57:11.192Z,3.80
2019-02-26T11:59:42.865Z,2.30
2019-02-26T12:02:24.914Z,2.37
2019-02-26T12:04:49.415Z,2.87
2019-02-26T12:07:19.857Z,2.90
2019-02-26T12:09:50.078Z,2.00
2019-02-26T12:12:20.573Z,3.58
2019-02-26T12:14:51.674Z,2.87
2019-02-26T12:17:24.050Z,1.15
2019-02-26T12:19:57.942Z,1.50
2019-02-26T12:22:29.898Z,1.90
2019-02-26T12:25:05.143Z,3.42
2019-02-26T12:27:39.018Z,2.52
2019-02-26T12:30:15.245Z,1.30
2019-02-26T12:32:47.562Z,1.72
2019-02-26T12:35:18.037Z,4.25
2019-02-26T12:37:50.185Z,2.45
2019-02-26T12:40:25.545Z,2.17
2019-02-26T12:42:57.946Z,1.80
2019-02-26T12:45:31.037Z,1.92
2019-02-26T12:48:03.558Z,1.80
2019-02-26T12:50:36.646Z,1.87
2019-02-26T12:53:12.706Z,3.75
2019-02-26T12:55:42.709Z,2.55
2019-02-26T12:58:16.993Z,2.75
2019-02-26T13:00:45.299Z,1.60
2019-02-26T13:03:19.646Z,4.47
2019-02-26T13:05:49.193Z,1.30
2019-02-26T13:08:20.531Z,2.55
2019-02-26T13:10:56.160Z,2.05
2019-02-26T13:13:24.368Z,1.50
2019-02-26T13:15:54.749Z,1.52
2019-02-26T13:18:25.171Z,3.40
2019-02-26T13:20:59.288Z,2.75
2019-02-26T13:23:27.564Z,4.62
2019-02-26T13:25:57.910Z,5.00
2019-02-26T13:28:29.678Z,4.45
2019-02-26T13:31:02.349Z,3.90
2019-02-26T13:33:35.143Z,4.15
2019-02-26T13:36:04.841Z,2.70
2019-02-26T13:38:44.058Z,5.00
2019-02-26T13:41:25.242Z,6.90
2019-02-26T13:43:38.945Z,3.92
2019-02-26T13:46:09.247Z,9.95
2019-02-26T13:48:39.695Z,4.78
2019-02-26T13:51:10.103Z,4.30
2019-02-26T13:53:40.536Z,3.95
2019-02-26T13:56:10.829Z,3.62
2019-02-26T13:58:41.824Z,5.75
2019-02-26T14:01:12.395Z,5.35
2019-02-26T14:03:42.908Z,7.20
2019-02-26T14:06:13.499Z,5.25
2019-02-26T14:08:46.539Z,5.97
2019-02-26T14:11:16.752Z,5.17
2019-02-26T14:13:47.323Z,4.37
2019-02-26T14:16:17.518Z,5.93
2019-02-26T14:18:48.257Z,3.23
2019-02-26T14:21:18.636Z,5.63
2019-02-26T14:23:48.827Z,3.97
2019-02-26T14:26:19.513Z,3.30
2019-02-26T14:28:49.799Z,3.10
2019-02-26T14:31:20.074Z,3.33
2019-02-26T14:33:50.752Z,4.60
2019-02-26T14:36:21.110Z,3.20
2019-02-26T14:38:51.278Z,4.60
2019-02-26T14:41:21.570Z,5.23
2019-02-26T14:43:51.821Z,6.43
2019-02-26T14:46:21.976Z,5.30
2019-02-26T14:48:52.157Z,5.00
2019-02-26T14:51:22.417Z,6.20
2019-02-26T14:53:52.811Z,3.67
2019-02-26T14:56:25.014Z,3.73
2019-02-26T14:58:55.311Z,5.27
2019-02-26T15:01:25.647Z,3.63
2019-02-26T15:03:56.483Z,3.73
2019-02-26T15:06:26.598Z,5.50
2019-02-26T15:08:56.722Z,4.43
2019-02-26T15:11:28.233Z,3.60
2019-02-26T15:13:58.406Z,4.17
2019-02-26T15:16:28.882Z,3.40
2019-02-26T15:18:59.046Z,3.97
2019-02-26T15:21:29.925Z,4.30
2019-02-26T15:24:00.115Z,4.53
2019-02-26T15:26:30.320Z,6.33
2019-02-26T15:29:00.427Z,5.07
2019-02-26T15:31:30.627Z,5.20
2019-02-26T15:34:00.741Z,5.90
2019-02-26T15:36:30.951Z,5.47
2019-02-26T15:39:01.068Z,4.90
2019-02-26T15:41:31.208Z,5.40
2019-02-26T15:44:01.356Z,4.33
2019-02-26T15:46:32.503Z,4.93
2019-02-26T15:49:07.323Z,4.10
2019-02-26T15:51:35.192Z,6.50
2019-02-26T15:54:06.558Z,5.20
2019-02-26T15:56:36.815Z,6.20
2019-02-26T15:59:07.205Z,5.00
2019-02-26T16:01:37.623Z,7.30
2019-02-26T16:04:07.851Z,7.20
2019-02-26T16:06:38.942Z,6.80
2019-02-26T16:09:12.461Z,5.77
2019-02-26T16:11:43.082Z,6.07
2019-02-26T16:14:20.209Z,6.65
2019-02-26T16:16:50.389Z,8.75
2019-02-26T16:19:33.524Z,9.75
2019-02-26T16:22:06.994Z,7.33
2019-02-26T16:24:37.131Z,9.85
2019-02-26T16:27:07.679Z,7.90
2019-02-26T16:29:38.301Z,7.92
2019-02-26T16:32:09.178Z,9.10
2019-02-26T16:34:42.974Z,10.30
2019-02-26T16:37:13.402Z,3.58
2019-02-26T16:39:48.317Z,2.40
2019-02-26T16:42:19.893Z,3.70
2019-02-26T16:44:55.529Z,3.50
2019-02-26T16:47:28.753Z,2.92
2019-02-26T16:50:11.818Z,2.15
2019-02-26T16:52:31.699Z,2.75
2019-02-26T16:55:03.141Z,6.00
2019-02-26T16:57:33.927Z,3.60
2019-02-26T17:00:06.152Z,6.47
2019-02-26T17:05:15.396Z,4.37
2019-02-26T17:07:47.459Z,7.83
2019-02-26T17:10:18.272Z,5.00
2019-02-26T17:12:51.378Z,2.72
2019-02-26T17:15:24.629Z,4.92
2019-02-26T17:17:55.903Z,10.30
2019-02-26T17:20:27.049Z,6.42
2019-02-26T17:22:58.890Z,5.30
2019-02-26T17:25:29.563Z,3.70
2019-02-26T17:27:59.961Z,6.50
2019-02-26T17:30:31.887Z,5.47
2019-02-26T17:33:02.476Z,6.03
2019-02-26T17:35:32.627Z,7.78
2019-02-26T17:38:04.300Z,6.75
2019-02-26T17:40:36.735Z,2.95
2019-02-26T17:43:06.510Z,3.27
2019-02-26T17:45:37.211Z,5.05
2019-02-26T17:48:08.169Z,3.37
2019-02-26T17:50:38.404Z,6.17
2019-02-26T17:53:08.969Z,2.85
2019-02-26T17:55:39.989Z,5.37
2019-02-26T17:58:11.221Z,4.60
2019-02-26T18:00:42.800Z,3.33
2019-02-26T18:03:15.834Z,5.12
2019-02-26T18:05:51.291Z,4.12
2019-02-26T18:08:19.888Z,6.05
2019-02-26T18:10:51.540Z,5.92
2019-02-26T18:13:21.812Z,7.75
2019-02-26T18:15:56.064Z,3.02
2019-02-26T18:18:24.664Z,4.62
2019-02-26T18:20:54.917Z,3.92
2019-02-26T18:23:25.574Z,4.47
2019-02-26T18:25:55.749Z,5.15
2019-02-26T18:28:26.037Z,5.40
2019-02-26T18:30:58.011Z,8.00
2019-02-26T18:33:28.617Z,5.35
2019-02-26T18:35:59.368Z,6.37
2019-02-26T18:38:29.763Z,5.25
2019-02-26T18:41:00.779Z,4.03
2019-02-26T18:43:31.909Z,5.90
2019-02-26T18:46:02.625Z,4.53
2019-02-26T18:48:32.856Z,4.58
2019-02-26T18:51:03.102Z,8.00
2019-02-26T18:53:33.334Z,5.75
2019-02-26T18:56:04.199Z,5.60
2019-02-26T18:58:35.062Z,5.83
2019-02-26T19:01:05.330Z,4.15
2019-02-26T19:03:35.718Z,3.52
2019-02-26T19:06:06.074Z,4.08
2019-02-26T19:08:39.956Z,6.00
2019-02-26T19:11:16.682Z,15.28
2019-02-26T19:13:53.931Z,14.00
2019-02-26T19:16:27.588Z,6.22
2019-02-26T19:19:02.096Z,5.40
2019-02-26T19:21:33.504Z,4.10
2019-02-26T19:24:06.388Z,3.58
2019-02-26T19:26:36.674Z,4.78
2019-02-26T19:29:10.105Z,4.75
2019-02-26T19:31:42.413Z,7.05
2019-02-26T19:34:13.496Z,4.17
2019-02-26T19:37:30.583Z,5.05
2019-02-26T19:40:07.126Z,4.72
2019-02-26T19:42:39.443Z,6.10
2019-02-26T19:45:11.811Z,5.28
2019-02-26T19:47:59.120Z,5.08
2019-02-26T19:50:29.679Z,5.72
2019-02-26T19:53:02.481Z,5.60
2019-02-26T19:55:34.791Z,5.17
2019-02-26T19:58:07.098Z,8.38
2019-02-26T20:00:37.538Z,5.17
2019-02-26T20:03:09.407Z,8.43
2019-02-26T20:05:41.150Z,8.63
2019-02-26T20:08:17.433Z,7.67
2019-02-26T20:10:49.187Z,5.87
2019-02-26T20:13:23.133Z,5.05
2019-02-26T20:15:54.866Z,7.65
2019-02-26T20:18:28.691Z,13.78
2019-02-26T20:20:59.517Z,8.30
2019-02-26T20:23:31.193Z,8.03
2019-02-26T20:26:02.615Z,8.08
2019-02-26T20:28:35.434Z,6.12
2019-02-26T20:31:06.388Z,7.17
2019-02-26T20:33:37.358Z,9.93
2019-02-26T20:36:08.617Z,10.23
2019-02-26T20:38:39.074Z,7.60
2019-02-26T20:41:56.695Z,6.85
2019-02-26T20:44:28.342Z,5.17
2019-02-26T20:46:59.631Z,8.13
2019-02-26T20:52:59.936Z,16.85
2019-02-26T20:58:31.727Z,11.70
2019-02-26T21:04:39.369Z,5.53
2019-02-26T21:07:28.349Z,6.97
2019-02-26T21:14:07.524Z,5.67
2019-02-26T21:21:07.450Z,8.38
2019-02-26T21:24:34.617Z,6.28
2019-02-26T21:28:21.235Z,7.15
2019-02-26T21:32:04.320Z,6.30
2019-02-26T21:35:37.761Z,6.08
2019-02-26T21:38:40.959Z,5.40
2019-02-26T21:42:09.385Z,5.85
2019-02-26T21:49:35.750Z,8.20
2019-02-26T21:53:32.082Z,9.85
2019-02-26T21:57:12.420Z,9.03
2019-02-26T22:00:57.358Z,7.35
2019-02-26T22:04:31.740Z,6.75
2019-02-26T22:07:55.496Z,9.38
2019-02-26T22:11:05.213Z,8.13
2019-02-26T22:13:57.008Z,8.03
2019-02-26T22:17:08.968Z,7.97
2019-02-26T22:20:01.591Z,9.03
2019-02-26T22:26:23.625Z,7.70
2019-02-26T22:29:02.753Z,11.45
2019-02-26T22:34:50.840Z,8.45
2019-02-26T22:37:41.365Z,8.55
2019-02-26T22:40:48.934Z,8.80
2019-02-26T22:48:08.630Z,7.45
2019-02-26T22:51:48.510Z,9.90
2019-02-26T23:09:30.599Z,6.53
2019-02-26T23:12:46.684Z,9.48
2019-02-26T23:19:10.941Z,10.10
2019-02-26T23:21:52.291Z,7.37
2019-02-26T23:37:14.392Z,6.20
2019-02-26T23:40:14.058Z,8.80
2019-02-26T23:47:17.528Z,7.90
2019-02-26T23:51:04.175Z,8.08
2019-02-26T23:53:47.647Z,6.67
2019-02-26T23:56:30.730Z,5.50
2019-02-26T23:59:41.786Z,8.25
